Time;durP1;ratioP1;P1;durP2;ratioP2;P2;SDS_P1;SDS_P2;PMS_P1;PMS_P2;Temp;Humidity;BMP_temperature;BMP_pressure;BME280_temperature;BME280_humidity;BME280_pressure;Samples;Min_cycle;Max_cycle;Signal;HPM_P1;HPM_P2
2022/01/12 00:00:34;;;;;;;55.83;23.83;;;4.00;99.90;;;;;;4971580;28;21427;-76
2022/01/12 00:03:01;;;;;;;56.03;24.40;;;3.90;99.90;;;;;;4979450;28;20234;-76
2022/01/12 00:05:28;;;;;;;54.40;23.90;;;4.10;99.90;;;;;;4977703;28;20290;-76
2022/01/12 00:07:55;;;;;;;53.13;24.43;;;4.10;99.90;;;;;;4975075;28;20330;-77
2022/01/12 00:10:22;;;;;;;58.50;24.73;;;4.00;99.90;;;;;;4985167;28;20270;-76
2022/01/12 00:12:49;;;;;;;64.17;25.57;;;4.10;99.90;;;;;;4974906;28;20750;-77
2022/01/12 00:15:16;;;;;;;53.83;23.77;;;4.00;99.90;;;;;;4978518;28;20238;-77
2022/01/12 00:17:43;;;;;;;49.40;23.37;;;4.00;99.90;;;;;;4975301;28;20227;-76
2022/01/12 00:20:11;;;;;;;57.57;24.43;;;4.00;99.90;;;;;;4975818;28;20706;-77
2022/01/12 00:22:40;;;;;;;64.23;25.17;;;4.00;99.90;;;;;;4975176;28;20632;-77
2022/01/12 00:33:21;;;;;;;59.57;24.07;;;4.10;99.90;;;;;;4976396;28;20320;-76
2022/01/12 00:35:51;;;;;;;55.47;23.93;;;4.10;99.90;;;;;;4972726;28;20199;-77
2022/01/12 00:38:20;;;;;;;52.17;24.57;;;4.10;99.90;;;;;;4986493;28;20652;-77
2022/01/12 00:40:50;;;;;;;60.20;26.37;;;4.10;99.90;;;;;;4974001;28;20235;-77
2022/01/12 00:43:21;;;;;;;60.30;25.53;;;4.00;99.90;;;;;;4981725;28;20608;-77
2022/01/12 00:45:49;;;;;;;63.37;25.03;;;4.00;99.90;;;;;;4978917;28;20238;-77
2022/01/12 00:48:17;;;;;;;64.10;26.70;;;4.00;99.90;;;;;;4959756;28;20318;-77
2022/01/12 00:50:45;;;;;;;70.27;27.23;;;4.00;99.90;;;;;;4975976;28;20244;-77
2022/01/12 00:53:14;;;;;;;62.80;26.60;;;4.00;99.90;;;;;;4981353;28;20215;-76
2022/01/12 00:55:41;;;;;;;61.27;25.53;;;4.10;99.90;;;;;;4980665;28;20208;-77
2022/01/12 00:58:07;;;;;;;59.63;26.20;;;4.10;99.90;;;;;;4979975;28;20235;-78
2022/01/12 01:00:35;;;;;;;61.87;26.60;;;4.10;99.90;;;;;;4976344;28;20203;-77
2022/01/12 01:03:02;;;;;;;57.83;26.13;;;4.10;99.90;;;;;;4980463;28;20279;-76
2022/01/12 01:05:32;;;;;;;59.33;25.90;;;4.10;99.90;;;;;;4979740;28;20241;-76
2022/01/12 01:07:59;;;;;;;55.17;26.53;;;4.10;99.90;;;;;;4989293;28;20315;-77
2022/01/12 01:13:19;;;;;;;60.13;26.87;;;4.10;99.90;;;;;;4986627;28;20303;-77
2022/01/12 01:26:40;;;;;;;63.50;27.00;;;4.10;99.90;;;;;;4972399;28;20207;-76
2022/01/12 01:29:07;;;;;;;60.47;25.90;;;4.20;99.90;;;;;;4973474;28;20829;-76
2022/01/12 01:31:35;;;;;;;66.13;27.20;;;4.20;99.90;;;;;;4973448;28;20571;-76
2022/01/12 01:34:12;;;;;;;71.10;28.07;;;4.20;99.90;;;;;;4973687;28;20249;-76
2022/01/12 01:36:59;;;;;;;65.70;27.47;;;4.20;99.90;;;;;;4990886;28;20596;-76
2022/01/12 01:39:27;;;;;;;64.80;26.57;;;4.20;99.90;;;;;;4978101;28;20302;-75
2022/01/12 01:41:59;;;;;;;63.13;27.13;;;4.10;99.90;;;;;;4974692;28;20303;-76
2022/01/12 01:55:29;;;;;;;65.50;27.43;;;4.20;99.90;;;;;;4974758;28;20276;-76
2022/01/12 01:57:56;;;;;;;65.27;26.27;;;4.20;99.90;;;;;;4981166;28;20238;-76
2022/01/12 02:00:25;;;;;;;61.43;27.30;;;4.20;99.90;;;;;;4976440;28;20212;-75
2022/01/12 02:02:55;;;;;;;74.13;27.33;;;4.20;99.90;;;;;;4976559;28;20714;-75
2022/01/12 02:05:23;;;;;;;71.80;27.33;;;4.20;99.90;;;;;;4974059;28;20311;-76
2022/01/12 02:07:50;;;;;;;70.47;28.23;;;4.30;99.90;;;;;;4979841;28;20282;-77
2022/01/12 02:10:16;;;;;;;68.67;26.00;;;4.30;99.90;;;;;;4977607;28;20223;-76
2022/01/12 02:12:43;;;;;;;68.27;27.20;;;4.40;99.90;;;;;;4975362;28;20275;-75
2022/01/12 02:15:21;;;;;;;67.60;27.83;;;4.30;99.90;;;;;;4982641;28;20239;-76
2022/01/12 02:18:06;;;;;;;70.37;28.10;;;4.40;99.90;;;;;;4986972;28;20255;-76
2022/01/12 02:40:09;;;;;;;72.07;28.73;;;4.40;99.90;;;;;;4975167;28;20199;-77
2022/01/12 02:42:39;;;;;;;71.07;28.97;;;4.40;99.90;;;;;;4979394;28;20263;-76
2022/01/12 02:50:45;;;;;;;75.90;28.47;;;4.40;99.90;;;;;;4974425;28;20537;-76
2022/01/12 02:55:59;;;;;;;86.07;29.47;;;4.50;99.90;;;;;;4973336;28;20674;-75
2022/01/12 02:58:26;;;;;;;87.90;29.87;;;4.40;99.90;;;;;;4972187;28;20309;-76
2022/01/12 03:03:23;;;;;;;92.23;31.40;;;4.50;99.90;;;;;;4975919;28;20562;-77
2022/01/12 03:06:03;;;;;;;103.80;32.97;;;4.50;99.90;;;;;;4970263;28;20238;-76
2022/01/12 03:08:36;;;;;;;112.87;34.70;;;4.50;99.90;;;;;;4970627;28;20246;-76
2022/01/12 03:11:08;;;;;;;124.17;34.87;;;4.50;99.90;;;;;;4975589;28;20242;-76
2022/01/12 03:13:35;;;;;;;97.77;32.40;;;4.50;99.90;;;;;;4975358;28;20337;-76
2022/01/12 03:16:11;;;;;;;101.00;30.20;;;4.50;99.90;;;;;;4985158;28;20326;-76
2022/01/12 03:18:39;;;;;;;98.07;31.20;;;4.40;99.90;;;;;;4982420;28;20283;-76
2022/01/12 03:21:06;;;;;;;92.17;30.10;;;4.40;99.90;;;;;;4979946;28;20215;-78
2022/01/12 03:23:33;;;;;;;96.10;27.60;;;4.40;99.90;;;;;;4981203;28;20218;-75
2022/01/12 03:26:00;;;;;;;108.03;31.07;;;4.40;99.90;;;;;;4980491;28;20219;-76
2022/01/12 03:28:27;;;;;;;110.83;29.23;;;4.50;99.90;;;;;;4981629;28;20235;-76
2022/01/12 03:30:59;;;;;;;117.47;30.00;;;4.50;99.90;;;;;;4977239;28;20231;-76
2022/01/12 03:33:50;;;;;;;109.80;30.97;;;4.50;99.90;;;;;;4983241;28;20280;-76
2022/01/12 03:36:27;;;;;;;103.80;30.63;;;4.50;99.90;;;;;;4987501;28;20294;-77
2022/01/12 03:39:00;;;;;;;110.93;30.43;;;4.60;99.90;;;;;;4978332;28;20212;-78
2022/01/12 03:41:29;;;;;;;100.93;30.03;;;4.60;99.90;;;;;;4973882;28;20215;-77
2022/01/12 03:43:59;;;;;;;101.47;30.53;;;4.60;99.90;;;;;;4975604;28;20200;-76
2022/01/12 03:46:26;;;;;;;111.50;32.73;;;4.60;99.90;;;;;;4987351;28;20208;-77
2022/01/12 03:48:52;;;;;;;102.97;29.70;;;4.60;99.90;;;;;;4978647;28;20238;-77
2022/01/12 03:51:19;;;;;;;106.60;32.27;;;4.60;99.90;;;;;;4977973;28;20208;-77
2022/01/12 03:53:46;;;;;;;111.63;30.03;;;4.60;99.90;;;;;;4985163;28;20281;-76
2022/01/12 03:56:13;;;;;;;108.13;31.50;;;4.60;99.90;;;;;;4979577;28;20208;-76
2022/01/12 03:58:41;;;;;;;118.37;31.17;;;4.60;99.90;;;;;;4979437;28;20275;-77
2022/01/12 04:01:08;;;;;;;126.37;31.27;;;4.60;99.90;;;;;;4973687;28;20287;-77
2022/01/12 04:03:40;;;;;;;106.33;29.73;;;4.60;99.90;;;;;;4974746;28;20665;-78
2022/01/12 04:08:53;;;;;;;122.60;32.67;;;4.60;99.90;;;;;;4978855;28;20237;-77
2022/01/12 04:11:20;;;;;;;121.03;32.20;;;4.60;99.90;;;;;;4976148;28;20222;-76
2022/01/12 04:13:48;;;;;;;105.33;31.03;;;4.60;99.90;;;;;;4979565;28;20257;-76
2022/01/12 04:16:17;;;;;;;132.73;32.27;;;4.60;99.90;;;;;;4978514;28;20270;-77
2022/01/12 04:18:44;;;;;;;128.90;31.63;;;4.60;99.90;;;;;;4977289;28;20228;-77
2022/01/12 04:21:13;;;;;;;133.73;34.23;;;4.60;99.90;;;;;;4980450;28;20600;-77
2022/01/12 04:23:41;;;;;;;117.77;32.30;;;4.60;99.90;;;;;;4992943;28;20213;-77
2022/01/12 04:26:11;;;;;;;129.20;32.17;;;4.50;99.90;;;;;;4978185;28;20207;-76
2022/01/12 04:28:41;;;;;;;142.00;33.63;;;4.60;99.90;;;;;;4979478;28;20685;-77
2022/01/12 04:31:09;;;;;;;118.13;32.37;;;4.50;99.90;;;;;;4973474;28;20209;-78
2022/01/12 04:33:37;;;;;;;121.63;32.97;;;4.60;99.90;;;;;;4974477;28;20248;-77
2022/01/12 04:36:07;;;;;;;123.73;32.50;;;4.60;99.90;;;;;;4972868;28;20274;-77
2022/01/12 04:38:37;;;;;;;140.00;31.90;;;4.60;99.90;;;;;;4973824;28;20215;-77
2022/01/12 04:41:08;;;;;;;162.60;33.83;;;4.70;99.90;;;;;;4975757;28;20638;-76
2022/01/12 04:43:37;;;;;;;166.53;36.03;;;4.70;99.90;;;;;;4968878;28;20200;-76
2022/01/12 04:51:10;;;;;;;132.73;32.33;;;4.70;99.90;;;;;;4977300;28;20214;-77
2022/01/12 04:53:37;;;;;;;201.70;35.40;;;4.70;99.90;;;;;;4960881;28;20286;-77
2022/01/12 04:56:04;;;;;;;180.37;34.67;;;4.70;99.90;;;;;;4975250;28;20219;-78
2022/01/12 04:58:31;;;;;;;184.30;34.93;;;4.70;99.90;;;;;;4975030;28;20219;-76
2022/01/12 05:01:05;;;;;;;154.27;34.17;;;4.70;99.90;;;;;;4967742;28;20220;-77
2022/01/12 05:06:43;;;;;;;157.20;32.83;;;4.80;99.90;;;;;;4976296;28;20307;-77
2022/01/12 05:09:40;;;;;;;176.60;33.07;;;4.80;99.90;;;;;;4977532;28;20264;-78
2022/01/12 05:14:57;;;;;;;291.07;37.70;;;4.80;99.90;;;;;;4976808;28;20207;-78
2022/01/12 05:17:24;;;;;;;212.83;34.10;;;4.80;99.90;;;;;;4972328;28;20306;-76
2022/01/12 05:19:51;;;;;;;250.27;35.43;;;4.90;99.90;;;;;;4978751;28;20314;-77
2022/01/12 05:22:17;;;;;;;323.37;40.57;;;4.90;99.90;;;;;;4974489;28;20458;-77
2022/01/12 05:24:44;;;;;;;236.57;33.47;;;4.90;99.90;;;;;;4975480;28;20212;-77
2022/01/12 05:27:25;;;;;;;238.17;36.20;;;4.90;99.90;;;;;;4968757;28;20207;-77
2022/01/12 05:29:52;;;;;;;240.20;35.60;;;4.90;99.90;;;;;;4974845;28;20240;-77
2022/01/12 05:32:19;;;;;;;227.57;36.43;;;4.90;99.90;;;;;;4976416;28;20220;-76
2022/01/12 05:34:46;;;;;;;343.93;40.23;;;4.90;99.90;;;;;;4973125;28;20211;-76
2022/01/12 05:37:12;;;;;;;264.53;38.67;;;4.90;99.90;;;;;;4976395;28;20234;-77
2022/01/12 05:39:39;;;;;;;228.67;35.90;;;4.90;99.90;;;;;;4971322;28;20685;-77
2022/01/12 05:42:24;;;;;;;215.80;34.43;;;4.90;99.90;;;;;;4978294;28;20204;-77
2022/01/12 05:44:51;;;;;;;193.90;35.80;;;4.90;99.90;;;;;;4978765;28;20237;-76
2022/01/12 05:47:34;;;;;;;212.93;35.67;;;4.90;99.90;;;;;;4974278;28;20560;-76
2022/01/12 05:50:01;;;;;;;217.47;34.80;;;4.90;99.90;;;;;;4971672;28;20325;-77
2022/01/12 05:52:28;;;;;;;209.57;34.63;;;4.90;99.90;;;;;;4974309;28;20218;-77
2022/01/12 05:54:54;;;;;;;177.47;32.00;;;4.90;99.90;;;;;;4974709;28;20664;-78
2022/01/12 05:57:21;;;;;;;157.83;31.10;;;4.90;99.90;;;;;;4974801;28;20204;-76
2022/01/12 05:59:48;;;;;;;157.50;32.67;;;4.90;99.90;;;;;;4975206;28;20223;-76
2022/01/12 06:02:15;;;;;;;157.83;32.83;;;4.90;99.90;;;;;;4972920;28;20310;-77
2022/01/12 06:04:41;;;;;;;142.57;31.67;;;4.90;99.90;;;;;;4974349;28;20207;-76
2022/01/12 06:07:09;;;;;;;158.67;31.33;;;4.90;99.90;;;;;;4976517;28;20222;-77
2022/01/12 06:09:36;;;;;;;119.70;30.80;;;4.90;99.90;;;;;;4974180;28;20230;-77
2022/01/12 06:12:03;;;;;;;147.87;32.70;;;4.90;99.90;;;;;;4976590;28;20247;-76
2022/01/12 06:14:30;;;;;;;136.53;31.20;;;4.90;99.90;;;;;;4966910;28;20208;-76
2022/01/12 06:16:57;;;;;;;129.70;29.20;;;4.90;99.90;;;;;;4973430;28;20323;-76
2022/01/12 06:19:24;;;;;;;156.53;32.00;;;4.90;99.90;;;;;;4976952;28;20328;-76
2022/01/12 06:21:51;;;;;;;131.10;29.53;;;4.90;99.90;;;;;;4971425;28;20211;-76
2022/01/12 06:24:19;;;;;;;107.07;28.80;;;4.90;99.90;;;;;;4977031;28;20218;-78
2022/01/12 06:26:47;;;;;;;130.73;28.60;;;4.90;99.90;;;;;;4969052;28;20227;-78
2022/01/12 06:31:44;;;;;;;113.40;29.60;;;4.90;99.90;;;;;;4972192;28;20828;-77
2022/01/12 06:34:12;;;;;;;131.13;30.27;;;5.00;99.90;;;;;;4972798;28;20266;-77
2022/01/12 06:36:39;;;;;;;115.83;30.13;;;4.90;99.90;;;;;;4975738;28;20293;-78
2022/01/12 06:39:10;;;;;;;114.17;28.17;;;5.00;99.90;;;;;;4973175;28;20208;-76
2022/01/12 06:41:38;;;;;;;113.13;29.70;;;5.00;99.90;;;;;;4973429;28;20224;-77
2022/01/12 06:44:06;;;;;;;98.90;28.00;;;5.00;99.90;;;;;;4973617;28;20212;-78
2022/01/12 06:46:34;;;;;;;113.57;28.53;;;5.00;99.90;;;;;;4974757;28;20208;-77
2022/01/12 06:49:02;;;;;;;104.57;28.47;;;5.00;99.90;;;;;;4971831;28;20223;-76
2022/01/12 06:51:29;;;;;;;108.00;28.27;;;5.00;99.90;;;;;;4972521;28;20597;-76
2022/01/12 06:53:56;;;;;;;98.20;28.43;;;5.00;99.90;;;;;;4974736;28;20246;-77
2022/01/12 06:56:24;;;;;;;90.90;25.30;;;5.00;99.90;;;;;;4973945;28;20299;-77
2022/01/12 06:58:50;;;;;;;84.87;25.33;;;5.00;99.90;;;;;;4969784;28;20244;-78
2022/01/12 07:01:18;;;;;;;87.77;25.20;;;5.00;99.90;;;;;;4970331;28;20417;-76
2022/01/12 07:03:45;;;;;;;92.20;25.33;;;5.00;99.90;;;;;;4981452;28;20233;-77
2022/01/12 07:06:12;;;;;;;94.97;25.70;;;4.90;99.90;;;;;;4976359;28;20233;-77
2022/01/12 07:08:39;;;;;;;84.13;23.83;;;5.00;99.90;;;;;;4975338;28;20218;-76
2022/01/12 07:11:06;;;;;;;92.33;25.40;;;5.00;99.90;;;;;;4974333;28;20236;-77
2022/01/12 07:13:33;;;;;;;90.90;25.30;;;5.00;99.90;;;;;;4971859;28;20208;-77
2022/01/12 07:15:59;;;;;;;92.37;24.50;;;5.00;99.90;;;;;;4971394;28;20214;-77
2022/01/12 07:18:29;;;;;;;91.03;25.07;;;5.00;99.90;;;;;;4976073;28;20582;-77
2022/01/12 07:20:56;;;;;;;83.73;25.13;;;5.00;99.90;;;;;;4971735;28;20322;-76
2022/01/12 07:23:25;;;;;;;85.73;24.77;;;5.00;99.90;;;;;;4967802;28;20219;-77
2022/01/12 07:25:53;;;;;;;97.67;26.00;;;5.00;99.90;;;;;;4972657;28;20219;-77
2022/01/12 07:28:20;;;;;;;70.17;21.37;;;5.10;99.90;;;;;;4974844;28;20299;-77
2022/01/12 07:30:49;;;;;;;73.90;22.27;;;5.00;99.90;;;;;;4976621;28;20231;-77
2022/01/12 07:33:16;;;;;;;90.10;23.70;;;5.00;99.90;;;;;;4970833;28;20237;-77
2022/01/12 07:35:44;;;;;;;82.93;24.13;;;4.90;99.90;;;;;;4972322;28;20208;-77
2022/01/12 07:38:11;;;;;;;81.13;24.23;;;4.90;99.90;;;;;;4973124;28;20627;-78
2022/01/12 07:40:39;;;;;;;85.37;24.37;;;4.90;99.90;;;;;;4976146;28;20208;-76
2022/01/12 07:43:06;;;;;;;83.97;22.77;;;4.90;99.90;;;;;;4968099;28;20235;-77
2022/01/12 07:45:35;;;;;;;81.57;23.20;;;4.90;99.90;;;;;;4969877;28;20214;-76
2022/01/12 07:48:02;;;;;;;87.23;23.17;;;4.90;99.90;;;;;;4973475;28;20225;-76
2022/01/12 07:50:34;;;;;;;82.30;23.17;;;4.90;99.90;;;;;;4977245;28;20350;-77
2022/01/12 07:53:00;;;;;;;82.97;22.13;;;4.90;99.90;;;;;;4973900;28;20743;-77
2022/01/12 07:55:27;;;;;;;72.97;22.13;;;4.90;99.90;;;;;;4977622;28;20744;-77
2022/01/12 07:57:54;;;;;;;87.27;23.20;;;4.90;99.90;;;;;;4972491;28;20764;-76
2022/01/12 08:00:21;;;;;;;86.97;23.13;;;4.90;99.90;;;;;;4975455;28;20306;-78
2022/01/12 08:02:54;;;;;;;86.90;22.03;;;4.90;99.90;;;;;;4972551;28;20226;-77
2022/01/12 08:05:22;;;;;;;76.73;21.20;;;4.90;99.90;;;;;;4970673;28;20211;-77
2022/01/12 08:07:49;;;;;;;79.00;20.93;;;4.90;99.90;;;;;;4967347;28;20239;-77
2022/01/12 08:10:16;;;;;;;81.00;20.07;;;4.90;99.90;;;;;;4972335;28;20231;-77
2022/01/12 08:12:44;;;;;;;67.17;18.57;;;4.90;99.90;;;;;;4976288;28;20727;-77
2022/01/12 08:15:11;;;;;;;76.80;18.73;;;4.90;99.90;;;;;;4980034;28;20203;-76
2022/01/12 08:17:39;;;;;;;76.27;19.83;;;4.90;99.90;;;;;;4974750;28;20316;-80
2022/01/12 08:20:17;;;;;;;73.37;19.87;;;4.90;99.90;;;;;;4978924;28;20699;-76
2022/01/12 08:22:44;;;;;;;61.63;17.73;;;4.90;99.90;;;;;;4978532;28;20240;-77
2022/01/12 08:25:11;;;;;;;74.87;19.63;;;4.90;99.90;;;;;;4973735;28;20216;-76
2022/01/12 08:27:38;;;;;;;86.13;21.10;;;5.00;99.90;;;;;;4973349;28;20657;-78
2022/01/12 08:30:15;;;;;;;78.40;18.60;;;5.00;99.90;;;;;;4974452;28;20244;-78
2022/01/12 08:32:42;;;;;;;77.07;19.37;;;5.00;99.90;;;;;;4977609;28;20234;-76
2022/01/12 08:35:09;;;;;;;65.83;17.30;;;5.00;99.90;;;;;;4979404;28;20317;-78
2022/01/12 08:37:36;;;;;;;68.33;18.67;;;5.10;99.90;;;;;;4977209;28;20303;-78
2022/01/12 08:40:03;;;;;;;62.63;18.13;;;5.10;99.90;;;;;;4976023;28;20253;-77
2022/01/12 08:42:30;;;;;;;61.53;19.00;;;5.10;99.90;;;;;;4976317;28;20274;-77
2022/01/12 08:44:59;;;;;;;71.20;17.33;;;5.10;99.90;;;;;;4975288;28;20576;-78
2022/01/12 08:47:30;;;;;;;62.93;17.90;;;5.10;99.90;;;;;;4978797;28;20234;-77
2022/01/12 08:49:57;;;;;;;67.87;18.57;;;5.10;99.90;;;;;;4977358;28;20221;-77
2022/01/12 08:52:25;;;;;;;74.83;19.23;;;5.10;99.90;;;;;;4981911;28;20608;-77
2022/01/12 08:54:52;;;;;;;84.23;19.63;;;5.20;99.90;;;;;;4976850;28;20267;-76
2022/01/12 08:57:19;;;;;;;64.40;18.83;;;5.20;99.90;;;;;;4980461;28;20298;-77
2022/01/12 08:59:46;;;;;;;71.47;18.63;;;5.20;99.90;;;;;;4973745;28;20738;-76
2022/01/12 09:02:14;;;;;;;70.53;19.20;;;5.20;99.90;;;;;;4975869;28;20234;-77
2022/01/12 09:04:44;;;;;;;64.50;18.73;;;5.20;99.90;;;;;;4973818;28;20256;-76
2022/01/12 09:07:11;;;;;;;70.43;17.43;;;5.20;99.90;;;;;;4974499;28;20323;-78
2022/01/12 09:09:38;;;;;;;51.63;15.23;;;5.20;99.90;;;;;;4975809;28;20724;-78
2022/01/12 09:12:06;;;;;;;61.67;14.60;;;5.30;99.90;;;;;;4973437;28;20206;-77
2022/01/12 09:14:34;;;;;;;63.87;18.80;;;5.30;99.90;;;;;;4981889;28;20296;-76
2022/01/12 09:17:00;;;;;;;63.23;17.37;;;5.40;99.90;;;;;;4971314;28;20220;-78
2022/01/12 09:19:28;;;;;;;64.83;21.17;;;5.40;99.90;;;;;;4978655;28;20294;-76
2022/01/12 09:21:56;;;;;;;72.43;18.97;;;5.40;99.90;;;;;;4975371;28;20618;-77
2022/01/12 09:24:23;;;;;;;60.10;16.37;;;5.50;99.90;;;;;;4979820;28;20221;-76
2022/01/12 09:26:50;;;;;;;48.67;14.17;;;5.50;99.90;;;;;;4978728;28;21150;-77
2022/01/12 09:29:18;;;;;;;51.70;14.77;;;5.60;99.90;;;;;;4971938;28;20204;-77
2022/01/12 09:31:45;;;;;;;54.47;14.30;;;5.60;99.90;;;;;;4973704;28;20762;-78
2022/01/12 09:34:12;;;;;;;44.20;13.23;;;5.60;99.90;;;;;;4992960;28;20324;-79
2022/01/12 09:36:39;;;;;;;52.93;13.57;;;5.70;99.90;;;;;;4976047;28;21090;-78
2022/01/12 09:39:06;;;;;;;47.83;13.37;;;5.70;99.90;;;;;;4976874;28;20293;-76
2022/01/12 09:41:33;;;;;;;48.70;13.13;;;5.70;99.90;;;;;;4972980;28;20261;-77
2022/01/12 09:44:00;;;;;;;39.87;12.90;;;5.70;99.90;;;;;;4977715;28;20936;-78
2022/01/12 09:46:27;;;;;;;47.47;12.90;;;5.80;99.90;;;;;;4976846;28;20260;-76
2022/01/12 09:48:57;;;;;;;38.80;12.57;;;5.70;99.90;;;;;;4973987;28;20296;-77
2022/01/12 09:51:24;;;;;;;41.10;11.70;;;5.70;99.90;;;;;;4974285;28;20324;-76
2022/01/12 09:53:52;;;;;;;44.03;11.90;;;5.60;99.90;;;;;;4979035;28;20223;-77
2022/01/12 09:56:24;;;;;;;47.00;12.67;;;5.80;99.90;;;;;;4973782;28;20218;-76
2022/01/12 09:58:54;;;;;;;39.63;11.67;;;5.80;99.90;;;;;;4972698;28;20206;-77
2022/01/12 10:01:45;;;;;;;45.53;12.80;;;5.90;99.90;;;;;;4972949;28;20290;-78
2022/01/12 10:04:33;;;;;;;44.90;14.10;;;6.00;99.90;;;;;;4968459;28;20680;-77
2022/01/12 10:07:04;;;;;;;43.47;13.17;;;6.00;99.90;;;;;;4976316;28;20685;-78
2022/01/12 10:09:39;;;;;;;45.90;13.67;;;6.00;99.90;;;;;;4975299;28;20297;-77
2022/01/12 10:12:11;;;;;;;43.77;13.00;;;6.30;99.90;;;;;;4972842;28;20277;-76
2022/01/12 10:14:50;;;;;;;36.93;12.33;;;;;;;;;;4973906;28;20314;-77
2022/01/12 10:17:18;;;;;;;31.57;11.43;;;6.10;99.90;;;;;;4973221;28;20217;-79
2022/01/12 10:19:46;;;;;;;33.47;11.03;;;6.10;99.90;;;;;;4979968;28;20207;-75
2022/01/12 10:22:15;;;;;;;39.27;10.17;;;6.20;99.90;;;;;;4988383;28;20215;-77
2022/01/12 10:24:44;;;;;;;29.47;9.43;;;6.20;99.90;;;;;;4989303;28;20210;-77
2022/01/12 10:27:37;;;;;;;32.03;9.67;;;6.30;99.90;;;;;;4993096;28;20210;-76
2022/01/12 10:30:05;;;;;;;30.77;9.37;;;6.30;99.90;;;;;;4991582;28;20764;-76
2022/01/12 10:32:32;;;;;;;30.37;8.27;;;6.30;99.90;;;;;;4981717;28;20643;-76
2022/01/12 10:35:00;;;;;;;28.40;8.40;;;6.30;99.90;;;;;;4973390;28;20691;-76
2022/01/12 10:37:27;;;;;;;25.43;8.03;;;6.40;99.90;;;;;;4977812;28;20214;-77
2022/01/12 10:39:56;;;;;;;27.67;7.60;;;6.40;99.90;;;;;;4971911;28;20223;-77
2022/01/12 10:42:25;;;;;;;27.77;8.77;;;6.40;99.90;;;;;;4975265;28;20205;-76
2022/01/12 10:44:55;;;;;;;30.33;8.97;;;6.50;99.90;;;;;;4976738;28;20302;-75
2022/01/12 10:47:29;;;;;;;32.43;10.33;;;6.50;99.90;;;;;;4974826;28;20289;-77
2022/01/12 10:50:05;;;;;;;27.10;9.50;;;6.50;99.90;;;;;;4974563;28;20207;-77
2022/01/12 10:52:39;;;;;;;29.67;10.00;;;6.40;99.90;;;;;;4974599;28;20219;-77
2022/01/12 10:55:08;;;;;;;29.60;9.20;;;6.40;99.90;;;;;;4967739;28;20216;-77
2022/01/12 10:57:41;;;;;;;30.87;9.93;;;6.40;99.90;;;;;;4974137;28;20211;-75
2022/01/12 11:00:18;;;;;;;29.90;8.87;;;6.40;99.90;;;;;;4982126;28;20613;-77
2022/01/12 11:02:55;;;;;;;29.00;9.83;;;6.40;99.90;;;;;;4973983;28;20269;-76
2022/01/12 11:05:25;;;;;;;26.37;9.23;;;6.50;99.90;;;;;;4970925;28;20210;-77
2022/01/12 11:07:53;;;;;;;25.87;8.93;;;6.40;99.90;;;;;;4975924;28;20246;-78
2022/01/12 11:10:21;;;;;;;29.63;9.23;;;6.30;99.90;;;;;;4974301;28;20247;-78
2022/01/12 11:12:50;;;;;;;28.00;7.83;;;6.40;99.90;;;;;;4974159;28;20214;-77
2022/01/12 11:15:19;;;;;;;18.47;8.07;;;6.30;99.90;;;;;;4973462;28;20215;-77
2022/01/12 11:17:48;;;;;;;28.20;9.77;;;6.40;99.90;;;;;;4973922;28;20272;-79
2022/01/12 11:20:25;;;;;;;37.20;10.10;;;6.50;99.90;;;;;;4977349;28;20221;-77
2022/01/12 11:23:08;;;;;;;29.27;10.17;;;6.40;99.90;;;;;;4971400;28;20207;-76
2022/01/12 11:25:38;;;;;;;23.40;9.60;;;6.50;99.90;;;;;;4974727;28;20257;-76
2022/01/12 11:28:17;;;;;;;34.03;10.17;;;6.50;99.90;;;;;;4972081;28;20600;-80
2022/01/12 11:30:50;;;;;;;29.50;9.10;;;6.60;99.90;;;;;;4972754;28;20664;-76
2022/01/12 11:33:36;;;;;;;25.97;9.37;;;6.70;99.90;;;;;;4970799;28;20312;-77
2022/01/12 11:36:14;;;;;;;20.93;8.70;;;6.50;99.90;;;;;;4970003;28;20336;-77
2022/01/12 11:38:47;;;;;;;26.70;9.00;;;6.40;99.90;;;;;;4976749;28;20278;-77
2022/01/12 11:41:16;;;;;;;23.33;9.13;;;6.30;99.90;;;;;;4973297;28;20212;-77
2022/01/12 11:44:03;;;;;;;26.47;8.70;;;6.40;99.90;;;;;;4977046;28;20550;-77
2022/01/12 11:46:54;;;;;;;26.70;9.63;;;6.40;99.90;;;;;;4977396;28;20264;-77
2022/01/12 11:49:28;;;;;;;30.83;9.33;;;6.40;99.90;;;;;;4978364;28;20214;-77
2022/01/12 11:52:00;;;;;;;27.30;9.67;;;6.40;99.90;;;;;;4978434;28;20680;-76
2022/01/12 11:54:39;;;;;;;26.87;8.53;;;6.40;99.90;;;;;;4972921;28;20273;-77
2022/01/12 11:57:10;;;;;;;24.30;8.90;;;6.40;99.90;;;;;;4974579;28;20734;-77
2022/01/12 11:59:56;;;;;;;24.03;8.00;;;6.50;99.90;;;;;;4983109;28;20294;-78
2022/01/12 12:02:36;;;;;;;21.53;7.30;;;6.50;99.90;;;;;;4977965;28;20764;-78
2022/01/12 12:05:15;;;;;;;22.37;8.70;;;6.50;99.90;;;;;;4985833;28;20230;-79
2022/01/12 12:07:53;;;;;;;21.87;8.23;;;6.50;99.90;;;;;;4972865;28;20210;-76
2022/01/12 12:10:27;;;;;;;25.03;8.30;;;6.60;99.90;;;;;;4979829;28;20238;-77
2022/01/12 12:12:55;;;;;;;21.37;8.77;;;6.60;99.90;;;;;;4977405;28;20299;-77
2022/01/12 12:15:23;;;;;;;28.40;8.73;;;6.60;99.90;;;;;;4976239;28;20226;-78
2022/01/12 12:17:53;;;;;;;23.93;8.20;;;6.70;99.90;;;;;;4975426;28;20232;-77
2022/01/12 12:20:21;;;;;;;22.70;7.63;;;6.70;99.90;;;;;;4974334;28;20203;-79
2022/01/12 12:22:54;;;;;;;24.00;8.50;;;6.80;99.90;;;;;;4974447;28;20215;-79
2022/01/12 12:25:23;;;;;;;23.10;8.10;;;6.80;99.90;;;;;;4975151;28;20299;-77
2022/01/12 12:27:56;;;;;;;26.27;7.60;;;6.80;99.90;;;;;;4983965;28;20270;-77
2022/01/12 12:30:25;;;;;;;21.30;7.23;;;6.80;99.90;;;;;;4976168;28;20294;-78
2022/01/12 12:33:08;;;;;;;20.17;8.27;;;6.80;99.90;;;;;;4979905;28;20279;-77
2022/01/12 12:35:39;;;;;;;23.27;8.10;;;6.80;99.90;;;;;;4977048;28;20217;-77
2022/01/12 12:38:11;;;;;;;21.40;7.63;;;6.80;99.90;;;;;;4979425;28;20331;-77
2022/01/12 12:40:41;;;;;;;26.97;8.97;;;6.90;99.90;;;;;;4985799;28;20325;-77
2022/01/12 12:43:23;;;;;;;26.43;8.60;;;7.00;99.90;;;;;;4985937;28;20212;-77
2022/01/12 12:45:56;;;;;;;22.23;7.73;;;7.10;99.90;;;;;;4983028;28;20224;-78
2022/01/12 12:48:32;;;;;;;23.97;8.60;;;7.20;99.90;;;;;;4975096;28;20224;-78
2022/01/12 12:51:01;;;;;;;27.53;8.47;;;7.10;99.90;;;;;;4980152;28;20292;-78
2022/01/12 12:53:37;;;;;;;26.77;8.93;;;7.20;99.90;;;;;;4976039;28;20218;-78
2022/01/12 12:56:07;;;;;;;26.30;8.80;;;7.20;99.90;;;;;;4974072;28;20212;-76
2022/01/12 12:58:35;;;;;;;24.87;8.20;;;7.20;99.90;;;;;;4977921;28;20207;-77
2022/01/12 13:01:11;;;;;;;21.90;7.97;;;7.20;99.90;;;;;;4973238;28;20311;-78
2022/01/12 13:03:39;;;;;;;24.60;8.43;;;7.20;99.90;;;;;;4972718;28;20237;-76
2022/01/12 13:06:29;;;;;;;24.27;8.20;;;7.20;99.90;;;;;;4975202;28;20212;-77
2022/01/12 13:09:08;;;;;;;27.70;8.80;;;7.10;99.90;;;;;;4972835;28;20290;-78
2022/01/12 13:11:37;;;;;;;24.47;8.70;;;7.10;99.90;;;;;;4972102;28;20236;-78
2022/01/12 13:14:09;;;;;;;25.80;9.33;;;7.00;99.90;;;;;;4974806;28;20282;-78
2022/01/12 13:16:49;;;;;;;27.43;9.23;;;6.90;99.90;;;;;;4974658;28;20283;-78
2022/01/12 13:22:37;;;;;;;30.30;9.33;;;6.70;99.90;;;;;;4972212;28;20213;-77
2022/01/12 13:25:12;;;;;;;25.03;9.13;;;6.60;99.90;;;;;;4977116;28;20281;-79
2022/01/12 13:27:40;;;;;;;30.10;9.07;;;6.50;99.90;;;;;;4977880;28;20303;-77
2022/01/12 13:30:10;;;;;;;30.27;10.00;;;6.50;99.90;;;;;;4975596;28;20210;-77
2022/01/12 13:32:37;;;;;;;33.53;9.63;;;6.40;99.90;;;;;;4975390;28;20239;-77
2022/01/12 13:35:08;;;;;;;29.83;9.60;;;6.40;99.90;;;;;;4977650;28;20240;-78
2022/01/12 13:37:36;;;;;;;25.07;8.97;;;6.40;99.90;;;;;;4974491;28;20273;-77
2022/01/12 13:40:05;;;;;;;27.80;9.97;;;6.40;99.90;;;;;;4977888;28;20694;-79
2022/01/12 13:42:32;;;;;;;33.50;9.47;;;6.40;99.90;;;;;;4968977;28;20331;-78
2022/01/12 13:45:09;;;;;;;27.63;9.97;;;6.40;99.90;;;;;;4972129;28;20604;-77
2022/01/12 13:47:37;;;;;;;30.70;10.57;;;6.40;99.90;;;;;;4973498;28;20225;-78
2022/01/12 13:50:07;;;;;;;25.67;9.27;;;6.50;99.90;;;;;;4969712;28;20633;-79
2022/01/12 13:52:33;;;;;;;33.07;10.97;;;6.50;99.90;;;;;;4976673;28;20383;-77
2022/01/12 13:55:14;;;;;;;25.63;8.73;;;6.60;99.90;;;;;;4980274;28;20767;-78
2022/01/12 13:57:40;;;;;;;28.43;9.07;;;6.60;99.90;;;;;;4985764;28;20315;-77
2022/01/12 14:00:18;;;;;;;25.37;10.00;;;6.50;99.90;;;;;;4982783;28;20631;-77
2022/01/12 14:02:46;;;;;;;25.63;9.90;;;6.50;99.90;;;;;;4977055;28;20227;-77
2022/01/12 14:05:18;;;;;;;29.77;9.90;;;6.50;99.90;;;;;;4969122;28;20223;-78
2022/01/12 14:08:00;;;;;;;29.10;10.17;;;6.50;99.90;;;;;;4974917;28;20207;-77
2022/01/12 14:10:31;;;;;;;26.73;10.37;;;6.50;99.90;;;;;;4971587;28;20215;-76
2022/01/12 14:12:58;;;;;;;29.63;12.10;;;6.50;99.90;;;;;;4972776;28;20248;-77
2022/01/12 14:15:28;;;;;;;29.43;9.53;;;6.50;99.90;;;;;;4974519;28;20233;-77